sensor_id;sensor_type;location;lat;lon;timestamp;temperature;humidity
20590;DHT22;10453;50.810;12.540;2023-02-17T00:02:55;7.70;99.90
20590;DHT22;10453;50.810;12.540;2023-02-17T00:07:12;7.60;99.90
20590;DHT22;10453;50.810;12.540;2023-02-17T00:11:30;7.50;99.90
20590;DHT22;10453;50.810;12.540;2023-02-17T00:15:47;7.50;99.90
20590;DHT22;10453;50.810;12.540;2023-02-17T00:20:05;7.60;99.90
20590;DHT22;10453;50.810;12.540;2023-02-17T00:24:24;7.70;99.90
20590;DHT22;10453;50.810;12.540;2023-02-17T00:28:42;7.70;99.90
20590;DHT22;10453;50.810;12.540;2023-02-17T00:32:59;7.70;99.90
20590;DHT22;10453;50.810;12.540;2023-02-17T00:37:17;7.70;99.90
20590;DHT22;10453;50.810;12.540;2023-02-17T00:41:34;7.80;99.90
20590;DHT22;10453;50.810;12.540;2023-02-17T00:45:51;7.90;99.90
20590;DHT22;10453;50.810;12.540;2023-02-17T00:50:08;8.00;99.90
20590;DHT22;10453;50.810;12.540;2023-02-17T00:54:26;8.00;99.90
20590;DHT22;10453;50.810;12.540;2023-02-17T00:58:43;7.90;99.90
20590;DHT22;10453;50.810;12.540;2023-02-17T01:03:02;8.00;99.90
20590;DHT22;10453;50.810;12.540;2023-02-17T01:07:19;8.00;99.90
20590;DHT22;10453;50.810;12.540;2023-02-17T01:11:36;8.00;99.90
20590;DHT22;10453;50.810;12.540;2023-02-17T01:15:53;8.00;99.90
20590;DHT22;10453;50.810;12.540;2023-02-17T01:20:10;8.00;99.90
20590;DHT22;10453;50.810;12.540;2023-02-17T01:24:27;8.10;99.90
20590;DHT22;10453;50.810;12.540;2023-02-17T01:28:45;8.10;99.90
20590;DHT22;10453;50.810;12.540;2023-02-17T01:33:02;8.10;99.90
20590;DHT22;10453;50.810;12.540;2023-02-17T01:37:20;8.20;99.90
20590;DHT22;10453;50.810;12.540;2023-02-17T01:41:37;8.10;99.90
20590;DHT22;10453;50.810;12.540;2023-02-17T01:45:59;8.20;99.90
20590;DHT22;10453;50.810;12.540;2023-02-17T01:50:18;8.10;99.90
20590;DHT22;10453;50.810;12.540;2023-02-17T01:54:43;8.20;99.90
20590;DHT22;10453;50.810;12.540;2023-02-17T01:59:04;8.20;99.90
20590;DHT22;10453;50.810;12.540;2023-02-17T02:03:23;8.20;99.90
20590;DHT22;10453;50.810;12.540;2023-02-17T02:07:41;8.20;99.90
20590;DHT22;10453;50.810;12.540;2023-02-17T02:11:59;8.20;99.90
20590;DHT22;10453;50.810;12.540;2023-02-17T02:16:26;8.30;99.90
20590;DHT22;10453;50.810;12.540;2023-02-17T02:40:36;8.70;99.90
20590;DHT22;10453;50.810;12.540;2023-02-17T02:44:56;8.70;99.90
20590;DHT22;10453;50.810;12.540;2023-02-17T02:49:14;8.70;99.90
20590;DHT22;10453;50.810;12.540;2023-02-17T02:53:53;8.70;99.90
20590;DHT22;10453;50.810;12.540;2023-02-17T02:58:22;8.70;99.90
20590;DHT22;10453;50.810;12.540;2023-02-17T03:07:15;8.70;99.90
20590;DHT22;10453;50.810;12.540;2023-02-17T03:11:38;8.70;99.90
20590;DHT22;10453;50.810;12.540;2023-02-17T03:15:56;8.60;99.90
20590;DHT22;10453;50.810;12.540;2023-02-17T03:20:14;8.60;99.90
20590;DHT22;10453;50.810;12.540;2023-02-17T03:24:32;8.60;99.90
20590;DHT22;10453;50.810;12.540;2023-02-17T03:28:49;8.40;99.90
20590;DHT22;10453;50.810;12.540;2023-02-17T03:33:07;8.40;99.90
20590;DHT22;10453;50.810;12.540;2023-02-17T03:37:24;8.50;99.90
20590;DHT22;10453;50.810;12.540;2023-02-17T03:41:41;8.40;99.90
20590;DHT22;10453;50.810;12.540;2023-02-17T03:45:59;8.40;99.90
20590;DHT22;10453;50.810;12.540;2023-02-17T03:50:16;8.40;99.90
20590;DHT22;10453;50.810;12.540;2023-02-17T03:54:33;8.30;99.90
20590;DHT22;10453;50.810;12.540;2023-02-17T03:58:50;8.30;99.90
20590;DHT22;10453;50.810;12.540;2023-02-17T04:03:07;8.40;99.90
20590;DHT22;10453;50.810;12.540;2023-02-17T04:07:24;8.40;99.90
20590;DHT22;10453;50.810;12.540;2023-02-17T04:11:42;8.30;99.90
20590;DHT22;10453;50.810;12.540;2023-02-17T04:16:00;8.30;99.90
20590;DHT22;10453;50.810;12.540;2023-02-17T04:20:20;8.30;99.90
20590;DHT22;10453;50.810;12.540;2023-02-17T04:24:37;8.30;99.90
20590;DHT22;10453;50.810;12.540;2023-02-17T04:28:55;8.30;99.90
20590;DHT22;10453;50.810;12.540;2023-02-17T04:33:12;8.30;99.90
20590;DHT22;10453;50.810;12.540;2023-02-17T04:37:29;8.20;99.90
20590;DHT22;10453;50.810;12.540;2023-02-17T04:41:46;8.20;99.90
20590;DHT22;10453;50.810;12.540;2023-02-17T04:46:04;8.10;99.90
20590;DHT22;10453;50.810;12.540;2023-02-17T04:50:21;8.20;99.90
20590;DHT22;10453;50.810;12.540;2023-02-17T04:54:39;8.30;99.90
20590;DHT22;10453;50.810;12.540;2023-02-17T04:58:56;8.20;99.90
20590;DHT22;10453;50.810;12.540;2023-02-17T05:03:13;8.20;99.90
20590;DHT22;10453;50.810;12.540;2023-02-17T05:07:30;8.20;99.90
20590;DHT22;10453;50.810;12.540;2023-02-17T05:11:47;8.20;99.90
20590;DHT22;10453;50.810;12.540;2023-02-17T05:16:04;8.20;99.90
20590;DHT22;10453;50.810;12.540;2023-02-17T05:20:22;8.20;99.90
20590;DHT22;10453;50.810;12.540;2023-02-17T05:24:39;8.20;99.90
20590;DHT22;10453;50.810;12.540;2023-02-17T05:28:56;8.20;99.90
20590;DHT22;10453;50.810;12.540;2023-02-17T05:33:13;8.20;99.90
20590;DHT22;10453;50.810;12.540;2023-02-17T05:37:30;8.30;99.90
20590;DHT22;10453;50.810;12.540;2023-02-17T05:41:48;8.30;99.90
20590;DHT22;10453;50.810;12.540;2023-02-17T05:46:05;8.30;99.90
20590;DHT22;10453;50.810;12.540;2023-02-17T05:50:23;8.30;99.90
20590;DHT22;10453;50.810;12.540;2023-02-17T05:54:40;8.30;99.90
20590;DHT22;10453;50.810;12.540;2023-02-17T05:58:58;8.30;99.90
20590;DHT22;10453;50.810;12.540;2023-02-17T06:03:16;8.30;99.90
20590;DHT22;10453;50.810;12.540;2023-02-17T06:07:33;8.30;99.90
20590;DHT22;10453;50.810;12.540;2023-02-17T06:11:50;8.30;99.90
20590;DHT22;10453;50.810;12.540;2023-02-17T06:16:08;8.30;99.90
20590;DHT22;10453;50.810;12.540;2023-02-17T06:20:25;8.30;99.90
20590;DHT22;10453;50.810;12.540;2023-02-17T06:24:42;8.30;99.90
20590;DHT22;10453;50.810;12.540;2023-02-17T06:28:59;8.30;99.90
20590;DHT22;10453;50.810;12.540;2023-02-17T06:33:17;8.40;99.90
20590;DHT22;10453;50.810;12.540;2023-02-17T06:37:34;8.30;99.90
20590;DHT22;10453;50.810;12.540;2023-02-17T06:41:51;8.30;99.90
20590;DHT22;10453;50.810;12.540;2023-02-17T06:46:08;8.30;99.90
20590;DHT22;10453;50.810;12.540;2023-02-17T06:50:26;8.30;99.90
20590;DHT22;10453;50.810;12.540;2023-02-17T06:54:43;8.30;99.90
20590;DHT22;10453;50.810;12.540;2023-02-17T06:59:03;8.30;99.90
20590;DHT22;10453;50.810;12.540;2023-02-17T07:03:20;8.30;99.90
20590;DHT22;10453;50.810;12.540;2023-02-17T07:07:37;8.30;99.90
20590;DHT22;10453;50.810;12.540;2023-02-17T07:11:55;8.30;99.90
20590;DHT22;10453;50.810;12.540;2023-02-17T07:16:14;8.30;99.90
20590;DHT22;10453;50.810;12.540;2023-02-17T07:20:32;8.40;99.90
20590;DHT22;10453;50.810;12.540;2023-02-17T07:24:49;8.40;99.90
20590;DHT22;10453;50.810;12.540;2023-02-17T07:29:06;8.50;99.90
20590;DHT22;10453;50.810;12.540;2023-02-17T07:33:23;8.40;99.90
20590;DHT22;10453;50.810;12.540;2023-02-17T07:37:40;8.40;99.90
20590;DHT22;10453;50.810;12.540;2023-02-17T07:41:57;8.40;99.90
20590;DHT22;10453;50.810;12.540;2023-02-17T07:46:16;8.50;99.90
20590;DHT22;10453;50.810;12.540;2023-02-17T07:50:34;8.50;99.90
20590;DHT22;10453;50.810;12.540;2023-02-17T07:54:51;8.50;99.90
20590;DHT22;10453;50.810;12.540;2023-02-17T07:59:09;8.60;99.90
20590;DHT22;10453;50.810;12.540;2023-02-17T08:03:26;8.60;99.90
20590;DHT22;10453;50.810;12.540;2023-02-17T08:07:43;8.60;99.90
20590;DHT22;10453;50.810;12.540;2023-02-17T08:12:01;8.70;99.90
20590;DHT22;10453;50.810;12.540;2023-02-17T08:16:37;8.70;99.90
20590;DHT22;10453;50.810;12.540;2023-02-17T08:20:54;8.80;99.90
20590;DHT22;10453;50.810;12.540;2023-02-17T08:25:11;8.90;99.90
20590;DHT22;10453;50.810;12.540;2023-02-17T08:29:28;9.00;99.90
20590;DHT22;10453;50.810;12.540;2023-02-17T08:33:45;9.00;99.90
20590;DHT22;10453;50.810;12.540;2023-02-17T08:38:03;9.00;99.90
20590;DHT22;10453;50.810;12.540;2023-02-17T08:42:20;9.10;99.90
20590;DHT22;10453;50.810;12.540;2023-02-17T08:46:38;9.20;99.90
20590;DHT22;10453;50.810;12.540;2023-02-17T08:50:55;9.30;99.90
20590;DHT22;10453;50.810;12.540;2023-02-17T08:55:12;9.40;99.90
20590;DHT22;10453;50.810;12.540;2023-02-17T08:59:29;9.40;99.90
20590;DHT22;10453;50.810;12.540;2023-02-17T09:03:48;9.50;99.90
20590;DHT22;10453;50.810;12.540;2023-02-17T09:08:06;9.60;99.90
20590;DHT22;10453;50.810;12.540;2023-02-17T09:12:23;9.70;99.90
20590;DHT22;10453;50.810;12.540;2023-02-17T09:16:40;9.70;99.90
20590;DHT22;10453;50.810;12.540;2023-02-17T09:20:58;9.90;99.90
20590;DHT22;10453;50.810;12.540;2023-02-17T09:25:16;10.00;99.90
20590;DHT22;10453;50.810;12.540;2023-02-17T09:29:35;10.10;99.90
20590;DHT22;10453;50.810;12.540;2023-02-17T09:33:54;10.10;99.90
20590;DHT22;10453;50.810;12.540;2023-02-17T09:38:11;10.00;99.90
20590;DHT22;10453;50.810;12.540;2023-02-17T09:42:29;10.00;99.90
20590;DHT22;10453;50.810;12.540;2023-02-17T09:47:04;9.90;99.90
20590;DHT22;10453;50.810;12.540;2023-02-17T09:51:34;10.00;99.90
20590;DHT22;10453;50.810;12.540;2023-02-17T09:55:55;10.00;99.90
20590;DHT22;10453;50.810;12.540;2023-02-17T10:00:20;10.20;99.90
20590;DHT22;10453;50.810;12.540;2023-02-17T10:04:43;10.30;99.90
20590;DHT22;10453;50.810;12.540;2023-02-17T10:13:41;10.40;99.90
20590;DHT22;10453;50.810;12.540;2023-02-17T10:18:25;10.50;99.90
20590;DHT22;10453;50.810;12.540;2023-02-17T10:22:51;10.70;99.90
20590;DHT22;10453;50.810;12.540;2023-02-17T10:27:44;10.70;99.90
20590;DHT22;10453;50.810;12.540;2023-02-17T10:36:52;10.80;99.90
20590;DHT22;10453;50.810;12.540;2023-02-17T10:41:14;11.00;99.90
20590;DHT22;10453;50.810;12.540;2023-02-17T10:45:44;11.00;99.90
20590;DHT22;10453;50.810;12.540;2023-02-17T10:50:13;11.10;99.90
20590;DHT22;10453;50.810;12.540;2023-02-17T10:54:40;11.10;99.90
20590;DHT22;10453;50.810;12.540;2023-02-17T10:59:13;11.00;99.90
20590;DHT22;10453;50.810;12.540;2023-02-17T11:03:34;10.90;99.90
20590;DHT22;10453;50.810;12.540;2023-02-17T11:08:20;10.90;99.90
20590;DHT22;10453;50.810;12.540;2023-02-17T11:12:40;11.10;99.90
20590;DHT22;10453;50.810;12.540;2023-02-17T11:16:58;11.10;99.90
20590;DHT22;10453;50.810;12.540;2023-02-17T11:21:17;11.30;99.90
20590;DHT22;10453;50.810;12.540;2023-02-17T11:25:35;11.30;99.90
20590;DHT22;10453;50.810;12.540;2023-02-17T11:30:07;11.40;99.90
20590;DHT22;10453;50.810;12.540;2023-02-17T11:34:28;11.60;99.90
20590;DHT22;10453;50.810;12.540;2023-02-17T11:38:46;11.90;99.90
20590;DHT22;10453;50.810;12.540;2023-02-17T11:43:04;12.00;99.90
20590;DHT22;10453;50.810;12.540;2023-02-17T11:47:40;11.70;99.90
20590;DHT22;10453;50.810;12.540;2023-02-17T11:56:46;11.70;99.90
20590;DHT22;10453;50.810;12.540;2023-02-17T12:01:53;11.70;99.90
20590;DHT22;10453;50.810;12.540;2023-02-17T12:06:43;11.60;99.90
20590;DHT22;10453;50.810;12.540;2023-02-17T12:15:58;11.40;99.90
20590;DHT22;10453;50.810;12.540;2023-02-17T12:20:30;11.40;99.90
20590;DHT22;10453;50.810;12.540;2023-02-17T12:24:57;11.40;99.90
20590;DHT22;10453;50.810;12.540;2023-02-17T12:29:38;11.40;99.90
20590;DHT22;10453;50.810;12.540;2023-02-17T12:34:03;11.50;99.90
20590;DHT22;10453;50.810;12.540;2023-02-17T12:38:26;11.50;99.90
20590;DHT22;10453;50.810;12.540;2023-02-17T12:42:53;11.60;99.90
20590;DHT22;10453;50.810;12.540;2023-02-17T12:47:16;11.60;99.90
20590;DHT22;10453;50.810;12.540;2023-02-17T12:57:31;11.70;99.90
20590;DHT22;10453;50.810;12.540;2023-02-17T13:01:30;11.70;99.90
20590;DHT22;10453;50.810;12.540;2023-02-17T13:06:15;11.70;99.90
20590;DHT22;10453;50.810;12.540;2023-02-17T13:10:37;11.80;99.90
20590;DHT22;10453;50.810;12.540;2023-02-17T13:15:00;11.90;99.90
20590;DHT22;10453;50.810;12.540;2023-02-17T13:19:32;11.90;99.90
20590;DHT22;10453;50.810;12.540;2023-02-17T13:24:04;11.80;99.90
20590;DHT22;10453;50.810;12.540;2023-02-17T13:28:35;11.80;99.90
20590;DHT22;10453;50.810;12.540;2023-02-17T13:33:05;11.90;99.90
20590;DHT22;10453;50.810;12.540;2023-02-17T13:37:41;12.00;99.90
20590;DHT22;10453;50.810;12.540;2023-02-17T13:41:59;12.10;99.90
20590;DHT22;10453;50.810;12.540;2023-02-17T13:46:22;12.10;99.90
20590;DHT22;10453;50.810;12.540;2023-02-17T13:50:47;12.10;99.90
20590;DHT22;10453;50.810;12.540;2023-02-17T13:55:05;12.30;99.90
20590;DHT22;10453;50.810;12.540;2023-02-17T13:59:26;12.20;99.90
20590;DHT22;10453;50.810;12.540;2023-02-17T14:03:49;12.30;99.90
20590;DHT22;10453;50.810;12.540;2023-02-17T14:12:48;12.30;99.90
20590;DHT22;10453;50.810;12.540;2023-02-17T14:21:44;12.10;99.90
20590;DHT22;10453;50.810;12.540;2023-02-17T14:26:23;12.10;99.90
20590;DHT22;10453;50.810;12.540;2023-02-17T14:30:42;11.90;99.90
20590;DHT22;10453;50.810;12.540;2023-02-17T14:39:28;11.80;99.90
20590;DHT22;10453;50.810;12.540;2023-02-17T14:43:45;11.60;99.90
20590;DHT22;10453;50.810;12.540;2023-02-17T14:48:03;11.60;99.90
20590;DHT22;10453;50.810;12.540;2023-02-17T14:52:22;11.60;99.90
20590;DHT22;10453;50.810;12.540;2023-02-17T14:57:05;11.50;99.90
20590;DHT22;10453;50.810;12.540;2023-02-17T15:01:24;11.60;99.90
20590;DHT22;10453;50.810;12.540;2023-02-17T15:05:42;11.60;99.90
20590;DHT22;10453;50.810;12.540;2023-02-17T15:09:59;11.70;99.90
20590;DHT22;10453;50.810;12.540;2023-02-17T15:14:18;11.80;99.90
20590;DHT22;10453;50.810;12.540;2023-02-17T15:18:36;11.80;99.90
20590;DHT22;10453;50.810;12.540;2023-02-17T15:22:55;11.80;99.90
20590;DHT22;10453;50.810;12.540;2023-02-17T15:27:14;11.90;99.90
20590;DHT22;10453;50.810;12.540;2023-02-17T15:31:32;11.90;99.90
20590;DHT22;10453;50.810;12.540;2023-02-17T15:35:52;12.00;99.90
20590;DHT22;10453;50.810;12.540;2023-02-17T15:40:21;12.10;99.90
20590;DHT22;10453;50.810;12.540;2023-02-17T15:44:41;12.10;99.90
20590;DHT22;10453;50.810;12.540;2023-02-17T15:49:00;12.20;99.90
20590;DHT22;10453;50.810;12.540;2023-02-17T15:53:17;12.10;99.90
20590;DHT22;10453;50.810;12.540;2023-02-17T15:57:36;12.20;99.90
20590;DHT22;10453;50.810;12.540;2023-02-17T16:01:56;12.10;99.90
20590;DHT22;10453;50.810;12.540;2023-02-17T16:06:17;12.10;99.90
20590;DHT22;10453;50.810;12.540;2023-02-17T16:10:34;12.30;99.90
20590;DHT22;10453;50.810;12.540;2023-02-17T16:14:52;12.20;99.90
20590;DHT22;10453;50.810;12.540;2023-02-17T16:19:10;12.20;99.90
20590;DHT22;10453;50.810;12.540;2023-02-17T16:23:27;12.40;99.90
20590;DHT22;10453;50.810;12.540;2023-02-17T16:27:46;12.10;99.90
20590;DHT22;10453;50.810;12.540;2023-02-17T16:32:04;12.10;99.90
20590;DHT22;10453;50.810;12.540;2023-02-17T16:36:22;12.20;99.90
20590;DHT22;10453;50.810;12.540;2023-02-17T16:40:42;12.10;99.90
20590;DHT22;10453;50.810;12.540;2023-02-17T16:45:11;12.10;99.90
20590;DHT22;10453;50.810;12.540;2023-02-17T16:49:31;12.10;99.90
20590;DHT22;10453;50.810;12.540;2023-02-17T16:53:49;12.10;99.90
20590;DHT22;10453;50.810;12.540;2023-02-17T16:58:18;12.10;99.90
20590;DHT22;10453;50.810;12.540;2023-02-17T17:02:35;12.20;99.90
20590;DHT22;10453;50.810;12.540;2023-02-17T17:06:52;12.10;99.90
20590;DHT22;10453;50.810;12.540;2023-02-17T17:11:13;12.20;99.90
20590;DHT22;10453;50.810;12.540;2023-02-17T17:15:34;12.20;99.90
20590;DHT22;10453;50.810;12.540;2023-02-17T17:19:52;12.20;99.90
20590;DHT22;10453;50.810;12.540;2023-02-17T17:24:09;12.10;99.90
20590;DHT22;10453;50.810;12.540;2023-02-17T17:28:26;12.10;99.90
20590;DHT22;10453;50.810;12.540;2023-02-17T17:32:44;12.10;99.90
20590;DHT22;10453;50.810;12.540;2023-02-17T17:37:01;12.10;99.90
20590;DHT22;10453;50.810;12.540;2023-02-17T17:41:20;12.20;99.90
20590;DHT22;10453;50.810;12.540;2023-02-17T17:45:37;12.20;99.90
20590;DHT22;10453;50.810;12.540;2023-02-17T17:49:54;12.10;99.90
20590;DHT22;10453;50.810;12.540;2023-02-17T17:54:11;12.10;99.90
20590;DHT22;10453;50.810;12.540;2023-02-17T17:58:29;12.10;99.90
20590;DHT22;10453;50.810;12.540;2023-02-17T18:02:47;12.20;99.90
20590;DHT22;10453;50.810;12.540;2023-02-17T18:07:04;12.00;99.90
20590;DHT22;10453;50.810;12.540;2023-02-17T18:11:23;12.10;99.90
20590;DHT22;10453;50.810;12.540;2023-02-17T18:15:40;12.20;99.90
20590;DHT22;10453;50.810;12.540;2023-02-17T18:19:58;12.20;99.90
20590;DHT22;10453;50.810;12.540;2023-02-17T18:24:15;12.10;99.90
20590;DHT22;10453;50.810;12.540;2023-02-17T18:28:33;12.20;99.90
20590;DHT22;10453;50.810;12.540;2023-02-17T18:32:50;12.20;99.90
20590;DHT22;10453;50.810;12.540;2023-02-17T18:37:07;12.00;99.90
20590;DHT22;10453;50.810;12.540;2023-02-17T18:41:26;11.90;99.90
20590;DHT22;10453;50.810;12.540;2023-02-17T18:45:46;11.90;99.90
20590;DHT22;10453;50.810;12.540;2023-02-17T18:50:06;11.90;99.90
20590;DHT22;10453;50.810;12.540;2023-02-17T18:54:23;12.10;99.90
20590;DHT22;10453;50.810;12.540;2023-02-17T18:58:40;12.10;99.90
20590;DHT22;10453;50.810;12.540;2023-02-17T19:02:58;12.40;99.90
20590;DHT22;10453;50.810;12.540;2023-02-17T19:07:15;12.30;99.90
20590;DHT22;10453;50.810;12.540;2023-02-17T19:11:33;11.90;99.90
20590;DHT22;10453;50.810;12.540;2023-02-17T19:15:50;11.60;99.90
20590;DHT22;10453;50.810;12.540;2023-02-17T19:20:08;11.50;99.90
20590;DHT22;10453;50.810;12.540;2023-02-17T19:24:25;11.40;99.90
20590;DHT22;10453;50.810;12.540;2023-02-17T19:28:43;11.40;99.90
20590;DHT22;10453;50.810;12.540;2023-02-17T19:33:01;11.20;99.90
20590;DHT22;10453;50.810;12.540;2023-02-17T19:37:18;11.10;99.90
20590;DHT22;10453;50.810;12.540;2023-02-17T19:41:35;10.90;99.90
20590;DHT22;10453;50.810;12.540;2023-02-17T19:45:52;10.60;99.90
20590;DHT22;10453;50.810;12.540;2023-02-17T19:50:09;10.20;99.90
20590;DHT22;10453;50.810;12.540;2023-02-17T19:54:27;10.00;99.90
20590;DHT22;10453;50.810;12.540;2023-02-17T19:58:45;9.90;99.90
20590;DHT22;10453;50.810;12.540;2023-02-17T20:03:02;10.10;99.90
20590;DHT22;10453;50.810;12.540;2023-02-17T20:07:20;10.00;99.90
20590;DHT22;10453;50.810;12.540;2023-02-17T20:11:37;10.00;99.90
20590;DHT22;10453;50.810;12.540;2023-02-17T20:15:59;9.90;99.90
20590;DHT22;10453;50.810;12.540;2023-02-17T20:20:17;9.90;99.90
20590;DHT22;10453;50.810;12.540;2023-02-17T20:24:35;9.90;99.90
20590;DHT22;10453;50.810;12.540;2023-02-17T20:28:53;9.90;99.90
20590;DHT22;10453;50.810;12.540;2023-02-17T20:33:11;9.90;99.90
20590;DHT22;10453;50.810;12.540;2023-02-17T20:37:28;10.00;99.90
20590;DHT22;10453;50.810;12.540;2023-02-17T20:41:45;9.90;99.90
20590;DHT22;10453;50.810;12.540;2023-02-17T20:46:02;10.00;99.90
20590;DHT22;10453;50.810;12.540;2023-02-17T20:50:20;10.00;99.90
20590;DHT22;10453;50.810;12.540;2023-02-17T20:54:37;10.00;99.90
20590;DHT22;10453;50.810;12.540;2023-02-17T20:58:55;10.00;99.90
20590;DHT22;10453;50.810;12.540;2023-02-17T21:03:12;10.00;99.90
20590;DHT22;10453;50.810;12.540;2023-02-17T21:07:29;10.00;99.90
20590;DHT22;10453;50.810;12.540;2023-02-17T21:11:46;10.00;99.90
20590;DHT22;10453;50.810;12.540;2023-02-17T21:16:04;10.10;99.90
20590;DHT22;10453;50.810;12.540;2023-02-17T21:20:22;10.20;99.90
20590;DHT22;10453;50.810;12.540;2023-02-17T21:24:39;10.00;99.90
20590;DHT22;10453;50.810;12.540;2023-02-17T21:28:56;10.00;99.90
20590;DHT22;10453;50.810;12.540;2023-02-17T21:33:13;9.90;99.90
20590;DHT22;10453;50.810;12.540;2023-02-17T21:37:30;9.90;99.90
20590;DHT22;10453;50.810;12.540;2023-02-17T21:41:48;10.00;99.90
20590;DHT22;10453;50.810;12.540;2023-02-17T21:46:07;10.10;99.90
20590;DHT22;10453;50.810;12.540;2023-02-17T21:50:25;10.00;99.90
20590;DHT22;10453;50.810;12.540;2023-02-17T21:54:42;10.20;99.90
20590;DHT22;10453;50.810;12.540;2023-02-17T21:58:59;10.30;99.90
20590;DHT22;10453;50.810;12.540;2023-02-17T22:03:16;10.30;99.90
20590;DHT22;10453;50.810;12.540;2023-02-17T22:07:34;10.30;99.90
20590;DHT22;10453;50.810;12.540;2023-02-17T22:11:51;10.30;99.90
20590;DHT22;10453;50.810;12.540;2023-02-17T22:16:08;10.20;99.90
20590;DHT22;10453;50.810;12.540;2023-02-17T22:20:26;10.20;99.90
20590;DHT22;10453;50.810;12.540;2023-02-17T22:24:44;10.20;99.90
20590;DHT22;10453;50.810;12.540;2023-02-17T22:29:01;10.40;99.90
20590;DHT22;10453;50.810;12.540;2023-02-17T22:33:19;10.40;99.90
20590;DHT22;10453;50.810;12.540;2023-02-17T22:37:36;10.50;99.90
20590;DHT22;10453;50.810;12.540;2023-02-17T22:41:53;10.60;99.90
20590;DHT22;10453;50.810;12.540;2023-02-17T22:46:12;10.60;99.90
20590;DHT22;10453;50.810;12.540;2023-02-17T22:50:39;10.70;99.90
20590;DHT22;10453;50.810;12.540;2023-02-17T22:54:56;10.70;99.90
20590;DHT22;10453;50.810;12.540;2023-02-17T22:59:14;10.80;99.90
20590;DHT22;10453;50.810;12.540;2023-02-17T23:03:32;10.80;99.90
20590;DHT22;10453;50.810;12.540;2023-02-17T23:07:49;10.80;99.90
20590;DHT22;10453;50.810;12.540;2023-02-17T23:12:08;10.80;99.90
20590;DHT22;10453;50.810;12.540;2023-02-17T23:16:25;10.70;99.90
20590;DHT22;10453;50.810;12.540;2023-02-17T23:20:45;10.80;99.90
20590;DHT22;10453;50.810;12.540;2023-02-17T23:25:03;10.80;99.90
20590;DHT22;10453;50.810;12.540;2023-02-17T23:29:20;10.80;99.90
20590;DHT22;10453;50.810;12.540;2023-02-17T23:33:38;10.70;99.90
20590;DHT22;10453;50.810;12.540;2023-02-17T23:37:55;10.50;99.90
20590;DHT22;10453;50.810;12.540;2023-02-17T23:42:12;10.10;99.90
20590;DHT22;10453;50.810;12.540;2023-02-17T23:46:29;9.80;99.90
20590;DHT22;10453;50.810;12.540;2023-02-17T23:50:54;9.60;99.90
20590;DHT22;10453;50.810;12.540;2023-02-17T23:55:12;9.50;99.90
20590;DHT22;10453;50.810;12.540;2023-02-17T23:59:29;9.40;99.90
